Vremea acum in Lipova - Romania

Vrei sa afli care e starea vremii acum in Arad - Romania? Dorim sa iti furnizam starea vremii pentru Arad - Romania. Starea vremii Arad - Romania pentru astazi.

Vremea acum in Lipova

Temperatura: 11 °C

Se simte ca: 10.4 °C
Innorat: 0 %
Precipitatii: 0 %
Presiune atmosferica: 1019 hPa
Umiditate: 76%
Vizibilitate: 10 km
Vantul bate din SE cu 6.8 km/h

Evolutia vremii in Lipova pe ore

Ora: 09:00
Parțial noros
Temperatura: 16.4°C
Sansa de precipitatii: 0%
Ora Descriere Temp Se simte Precipitatii Umiditate Vant
00:00Parțial noros15.5°15.5°0%38%SE 5.4 KM/H
01:00Parțial noros14.9°15°0%39%SE 5.8 KM/H
02:00Parțial noros14.4°14.5°0%40%SSE 6.1 KM/H
03:00Parțial noros14°14.1°0%42%SE 5.8 KM/H
04:00Parțial noros13.6°13.8°0%44%SE 5.4 KM/H
05:00Parțial noros13.2°13.4°0%46%SE 5 KM/H
06:00Parțial noros13.5°13.9°0%46%SE 4.7 KM/H
07:00Parțial noros13.9°14.3°0%47%ESE 4.3 KM/H
08:00Parțial noros14.2°14.8°0%47%ESE 4 KM/H
09:00Parțial noros16.4°16.8°0%42%ENE 4 KM/H
10:00Parțial noros18.5°18.7°0%37%NE 3.6 KM/H
11:00Parțial noros20.7°20.7°0%32%N 3.6 KM/H
12:00Parțial noros21.5°21.5°0%30%ESE 5.4 KM/H
13:00Parțial noros22.2°22.4°0%28%WSW 7.6 KM/H
14:00Parțial noros23°23.3°0%26%N 9.4 KM/H
15:00Parțial noros22.5°23.2°0%28%WSW 9 KM/H
16:00Parțial noros21.9°21.9°0%29%SE 8.6 KM/H
17:00Parțial noros21.4°21.4°0%30%N 8.3 KM/H
18:00Parțial noros20.2°20.2°0%31%N 8.6 KM/H
19:00Parțial noros19°19°0%33%N 9 KM/H
20:00Parțial noros17.8°17.8°0%35%N 9.4 KM/H
21:00Parțial noros17.3°17.3°0%37%SE 9.4 KM/H
22:00Parțial noros16.9°16.9°0%39%WSW 9.7 KM/H
23:00Parțial noros16.4°16.4°0%42%N 9.7 KM/H